Time,TemperatureF,DewpointF,PressureIn,WindDirection,WindDirectionDegrees,WindSpeedMPH,WindSpeedGustMPH,Humidity,HourlyPrecipIn,Conditions,Clouds,dailyrainin,SoftwareType,DateUTC
2013-01-08 00:05:00,31.3,26.4,30.38,WSW,253,0.0,0.0,82,0.00,,,0.00,Wunderground v.1.15,2013-01-08 05:05:00,
2013-01-08 00:10:00,31.2,26.3,30.38,WSW,253,0.0,0.0,82,0.00,,,0.00,Wunderground v.1.15,2013-01-08 05:10:00,
2013-01-08 00:15:00,31.1,26.2,30.38,WSW,253,0.0,0.0,82,0.00,,,0.00,Wunderground v.1.15,2013-01-08 05:15:00,
2013-01-08 00:20:00,30.9,26.3,30.38,WSW,252,0.0,0.0,83,0.00,,,0.00,Wunderground v.1.15,2013-01-08 05:20:00,
2013-01-08 00:30:00,30.5,26.2,30.38,WSW,253,0.0,0.0,84,0.00,,,0.00,Wunderground v.1.15,2013-01-08 05:30:00,
2013-01-08 00:35:00,30.2,26.2,30.38,WSW,253,0.0,0.0,85,0.00,,,0.00,Wunderground v.1.15,2013-01-08 05:35:00,
2013-01-08 00:40:00,30.0,26.3,30.38,WSW,253,0.0,0.0,86,0.00,,,0.00,Wunderground v.1.15,2013-01-08 05:40:00,
2013-01-08 00:45:00,30.0,26.3,30.38,NNE,27,0.0,1.0,86,0.00,,,0.00,Wunderground v.1.15,2013-01-08 05:45:00,
2013-01-08 00:55:00,30.0,26.6,30.38,WSW,253,0.0,0.0,87,0.00,,,0.00,Wunderground v.1.15,2013-01-08 05:55:00,
2013-01-08 01:00:00,29.8,26.1,30.38,WSW,253,0.0,0.0,86,0.00,,,0.00,Wunderground v.1.15,2013-01-08 06:00:00,
2013-01-08 01:10:00,29.8,26.4,30.38,WSW,253,0.0,0.0,87,0.00,,,0.00,Wunderground v.1.15,2013-01-08 06:10:00,
2013-01-08 01:15:00,29.8,26.1,30.38,WSW,253,0.0,0.0,86,0.00,,,0.00,Wunderground v.1.15,2013-01-08 06:15:00,
2013-01-08 01:20:00,29.8,26.1,30.38,WSW,253,0.0,0.0,86,0.00,,,0.00,Wunderground v.1.15,2013-01-08 06:20:00,
2013-01-08 01:25:00,29.8,26.1,30.38,West,269,0.0,0.0,86,0.00,,,0.00,Wunderground v.1.15,2013-01-08 06:25:00,
2013-01-08 01:30:00,29.9,26.2,30.38,West,269,0.0,0.0,86,0.00,,,0.00,Wunderground v.1.15,2013-01-08 06:30:00,
2013-01-08 01:35:00,29.9,26.2,30.38,West,269,0.0,0.0,86,0.00,,,0.00,Wunderground v.1.15,2013-01-08 06:35:00,
2013-01-08 01:40:00,29.8,26.1,30.38,West,269,0.0,0.0,86,0.00,,,0.00,Wunderground v.1.15,2013-01-08 06:40:00,
2013-01-08 01:45:00,29.8,26.1,30.38,West,269,0.0,0.0,86,0.00,,,0.00,Wunderground v.1.15,2013-01-08 06:45:00,
2013-01-08 01:50:00,29.8,26.1,30.38,West,269,0.0,0.0,86,0.00,,,0.00,Wunderground v.1.15,2013-01-08 06:50:00,
2013-01-08 01:55:00,29.7,26.0,30.38,West,269,0.0,0.0,86,0.00,,,0.00,Wunderground v.1.15,2013-01-08 06:55:00,
2013-01-08 02:00:00,29.8,26.1,30.38,West,269,0.0,0.0,86,0.00,,,0.00,Wunderground v.1.15,2013-01-08 07:00:00,
2013-01-08 02:05:00,29.7,26.0,30.38,West,269,0.0,0.0,86,0.00,,,0.00,Wunderground v.1.15,2013-01-08 07:05:00,
2013-01-08 02:15:00,29.8,26.1,30.38,WSW,256,0.0,0.0,86,0.00,,,0.00,Wunderground v.1.15,2013-01-08 07:15:00,
2013-01-08 02:20:00,29.8,26.1,30.38,WSW,256,0.0,0.0,86,0.00,,,0.00,Wunderground v.1.15,2013-01-08 07:20:00,
2013-01-08 02:25:00,29.8,26.1,30.38,WSW,256,0.0,0.0,86,0.00,,,0.00,Wunderground v.1.15,2013-01-08 07:25:00,
2013-01-08 02:30:00,29.8,26.1,30.38,WSW,256,0.0,0.0,86,0.00,,,0.00,Wunderground v.1.15,2013-01-08 07:30:00,
2013-01-08 02:35:00,29.8,26.1,30.38,WSW,256,0.0,0.0,86,0.00,,,0.00,Wunderground v.1.15,2013-01-08 07:35:00,
2013-01-08 02:40:00,29.8,26.1,30.37,WSW,256,0.0,0.0,86,0.00,,,0.00,Wunderground v.1.15,2013-01-08 07:40:00,
2013-01-08 02:45:00,29.7,26.0,30.37,WSW,256,0.0,0.0,86,0.00,,,0.00,Wunderground v.1.15,2013-01-08 07:45:00,
2013-01-08 02:50:00,29.6,25.9,30.37,WSW,256,0.0,0.0,86,0.00,,,0.00,Wunderground v.1.15,2013-01-08 07:50:00,
2013-01-08 03:00:00,29.6,26.2,30.37,WSW,240,0.0,0.0,87,0.00,,,0.00,Wunderground v.1.15,2013-01-08 08:00:00,
2013-01-08 03:05:00,29.7,26.3,30.37,SW,225,0.0,0.0,87,0.00,,,0.00,Wunderground v.1.15,2013-01-08 08:05:00,
2013-01-08 03:15:00,29.9,26.5,30.37,SW,235,0.0,0.0,87,0.00,,,0.00,Wunderground v.1.15,2013-01-08 08:15:00,
2013-01-08 03:20:00,29.9,26.5,30.37,SW,225,0.0,0.0,87,0.00,,,0.00,Wunderground v.1.15,2013-01-08 08:20:00,
2013-01-08 03:25:00,29.9,26.5,30.37,West,262,0.0,0.0,87,0.00,,,0.00,Wunderground v.1.15,2013-01-08 08:25:00,
2013-01-08 03:30:00,29.9,26.5,30.37,West,276,0.0,1.0,87,0.00,,,0.00,Wunderground v.1.15,2013-01-08 08:30:00,
2013-01-08 03:35:00,29.8,26.1,30.37,West,266,0.0,1.0,86,0.00,,,0.00,Wunderground v.1.15,2013-01-08 08:35:00,
2013-01-08 03:45:00,30.2,26.5,30.36,SW,218,1.0,1.0,86,0.00,,,0.00,Wunderground v.1.15,2013-01-08 08:45:00,
2013-01-08 03:55:00,30.2,26.5,30.36,SW,233,0.0,0.0,86,0.00,,,0.00,Wunderground v.1.15,2013-01-08 08:55:00,
2013-01-08 04:00:00,30.2,26.5,30.36,SSW,208,0.0,0.0,86,0.00,,,0.00,Wunderground v.1.15,2013-01-08 09:00:00,
2013-01-08 04:05:00,30.2,26.8,30.36,West,260,0.0,0.0,87,0.00,,,0.00,Wunderground v.1.15,2013-01-08 09:05:00,
2013-01-08 04:10:00,30.3,26.9,30.35,WSW,243,0.0,0.0,87,0.00,,,0.00,Wunderground v.1.15,2013-01-08 09:10:00,
2013-01-08 04:15:00,30.3,27.2,30.35,SSE,158,0.0,0.0,88,0.00,,,0.00,Wunderground v.1.15,2013-01-08 09:15:00,
2013-01-08 04:20:00,30.6,27.5,30.35,SSW,204,0.0,1.0,88,0.00,,,0.00,Wunderground v.1.15,2013-01-08 09:20:00,
2013-01-08 04:25:00,30.8,27.7,30.35,SW,222,1.0,1.0,88,0.00,,,0.00,Wunderground v.1.15,2013-01-08 09:25:00,
2013-01-08 04:30:00,30.8,27.7,30.35,SW,228,0.0,2.0,88,0.00,,,0.00,Wunderground v.1.15,2013-01-08 09:30:00,
2013-01-08 04:35:00,30.8,27.4,30.35,WNW,282,1.0,2.0,87,0.00,,,0.00,Wunderground v.1.15,2013-01-08 09:35:00,
2013-01-08 04:45:00,30.6,26.9,30.35,WSW,255,0.0,1.0,86,0.00,,,0.00,Wunderground v.1.15,2013-01-08 09:45:00,
2013-01-08 04:50:00,30.8,27.1,30.35,West,274,1.0,1.0,86,0.00,,,0.00,Wunderground v.1.15,2013-01-08 09:50:00,
2013-01-08 04:55:00,30.7,27.0,30.35,West,263,1.0,1.0,86,0.00,,,0.00,Wunderground v.1.15,2013-01-08 09:55:00,
2013-01-08 05:00:00,30.8,27.1,30.35,SSW,203,0.0,0.0,86,0.00,,,0.00,Wunderground v.1.15,2013-01-08 10:00:00,
2013-01-08 05:05:00,30.7,26.7,30.36,SSW,211,0.0,0.0,85,0.00,,,0.00,Wunderground v.1.15,2013-01-08 10:05:00,
2013-01-08 05:10:00,30.6,26.6,30.36,WNW,291,0.0,1.0,85,0.00,,,0.00,Wunderground v.1.15,2013-01-08 10:10:00,
2013-01-08 05:20:00,30.6,26.6,30.36,WNW,294,0.0,0.0,85,0.00,,,0.00,Wunderground v.1.15,2013-01-08 10:20:00,
2013-01-08 05:25:00,30.6,26.6,30.36,WSW,249,0.0,0.0,85,0.00,,,0.00,Wunderground v.1.15,2013-01-08 10:25:00,
2013-01-08 05:30:00,30.6,26.6,30.36,West,273,0.0,0.0,85,0.00,,,0.00,Wunderground v.1.15,2013-01-08 10:30:00,
2013-01-08 05:35:00,30.6,26.6,30.37,West,274,0.0,0.0,85,0.00,,,0.00,Wunderground v.1.15,2013-01-08 10:35:00,
2013-01-08 05:40:00,30.6,26.6,30.37,SW,232,0.0,2.0,85,0.00,,,0.00,Wunderground v.1.15,2013-01-08 10:40:00,
2013-01-08 05:45:00,30.7,26.7,30.37,West,274,0.0,2.0,85,0.00,,,0.00,Wunderground v.1.15,2013-01-08 10:45:00,
2013-01-08 05:50:00,30.7,26.4,30.37,West,265,0.0,3.0,84,0.00,,,0.00,Wunderground v.1.15,2013-01-08 10:50:00,
2013-01-08 05:55:00,30.7,26.4,30.38,West,266,0.0,3.0,84,0.00,,,0.00,Wunderground v.1.15,2013-01-08 10:55:00,
2013-01-08 06:05:00,30.4,26.1,30.38,WSW,238,0.0,1.0,84,0.00,,,0.00,Wunderground v.1.15,2013-01-08 11:05:00,
2013-01-08 06:15:00,30.2,26.2,30.38,WSW,250,0.0,0.0,85,0.00,,,0.00,Wunderground v.1.15,2013-01-08 11:15:00,
2013-01-08 06:20:00,30.2,26.2,30.38,West,269,0.0,0.0,85,0.00,,,0.00,Wunderground v.1.15,2013-01-08 11:20:00,
2013-01-08 06:25:00,30.1,26.1,30.39,West,269,0.0,0.0,85,0.00,,,0.00,Wunderground v.1.15,2013-01-08 11:25:00,
2013-01-08 06:30:00,30.0,26.0,30.39,West,271,0.0,0.0,85,0.00,,,0.00,Wunderground v.1.15,2013-01-08 11:30:00,
2013-01-08 06:40:00,30.1,26.1,30.39,SSW,210,0.0,0.0,85,0.00,,,0.00,Wunderground v.1.15,2013-01-08 11:40:00,
2013-01-08 06:45:00,30.2,26.5,30.39,WSW,255,0.0,0.0,86,0.00,,,0.00,Wunderground v.1.15,2013-01-08 11:45:00,
2013-01-08 06:50:00,30.2,26.5,30.39,WNW,291,0.0,0.0,86,0.00,,,0.00,Wunderground v.1.15,2013-01-08 11:50:00,
2013-01-08 07:00:00,30.3,26.6,30.39,SSW,204,0.0,0.0,86,0.00,,,0.00,Wunderground v.1.15,2013-01-08 12:00:00,
2013-01-08 07:05:00,30.3,26.6,30.39,WSW,243,0.0,0.0,86,0.00,,,0.00,Wunderground v.1.15,2013-01-08 12:05:00,
2013-01-08 07:15:00,30.3,26.6,30.39,WNW,287,0.0,0.0,86,0.00,,,0.00,Wunderground v.1.15,2013-01-08 12:15:00,
2013-01-08 07:20:00,30.2,26.5,30.39,West,271,0.0,0.0,86,0.00,,,0.00,Wunderground v.1.15,2013-01-08 12:20:00,
2013-01-08 07:25:00,30.3,26.9,30.39,West,266,0.0,0.0,87,0.00,,,0.00,Wunderground v.1.15,2013-01-08 12:25:00,
2013-01-08 07:30:00,30.7,27.6,30.39,WNW,291,0.0,0.0,88,0.00,,,0.00,Wunderground v.1.15,2013-01-08 12:30:00,
2013-01-08 07:35:00,31.2,28.1,30.39,SSW,212,0.0,1.0,88,0.00,,,0.00,Wunderground v.1.15,2013-01-08 12:35:00,
2013-01-08 07:45:00,32.0,28.8,30.39,WSW,247,0.0,0.0,88,0.00,,,0.00,Wunderground v.1.15,2013-01-08 12:45:00,
2013-01-08 07:50:00,32.4,29.2,30.40,SSW,207,0.0,0.0,88,0.00,,,0.00,Wunderground v.1.15,2013-01-08 12:50:00,
2013-01-08 08:05:00,33.9,30.7,30.40,WSW,243,1.0,1.0,88,0.00,,,0.00,Wunderground v.1.15,2013-01-08 13:05:00,
2013-01-08 08:10:00,34.4,30.9,30.40,West,267,0.0,1.0,87,0.00,,,0.00,Wunderground v.1.15,2013-01-08 13:10:00,
2013-01-08 08:15:00,34.8,31.3,30.40,West,264,0.0,1.0,87,0.00,,,0.00,Wunderground v.1.15,2013-01-08 13:15:00,
2013-01-08 08:25:00,35.5,32.0,30.41,WSW,243,1.0,2.0,87,0.00,,,0.00,Wunderground v.1.15,2013-01-08 13:25:00,
2013-01-08 08:30:00,35.9,32.1,30.41,WNW,293,1.0,2.0,86,0.00,,,0.00,Wunderground v.1.15,2013-01-08 13:30:00,
2013-01-08 08:40:00,36.7,32.6,30.42,ESE,119,1.0,2.0,85,0.00,,,0.00,Wunderground v.1.15,2013-01-08 13:40:00,
2013-01-08 08:45:00,37.1,32.7,30.42,West,278,1.0,1.0,84,0.00,,,0.00,Wunderground v.1.15,2013-01-08 13:45:00,
2013-01-08 08:50:00,37.6,32.9,30.42,SSW,207,1.0,1.0,83,0.00,,,0.00,Wunderground v.1.15,2013-01-08 13:50:00,
2013-01-08 09:00:00,38.4,33.1,30.42,West,271,1.0,1.0,81,0.00,,,0.00,Wunderground v.1.15,2013-01-08 14:00:00,
2013-01-08 09:05:00,38.7,32.7,30.42,WSW,238,1.0,3.0,79,0.00,,,0.00,Wunderground v.1.15,2013-01-08 14:05:00,
2013-01-08 09:10:00,38.9,32.6,30.41,WSW,249,1.0,2.0,78,0.00,,,0.00,Wunderground v.1.15,2013-01-08 14:10:00,
2013-01-08 09:15:00,39.2,32.9,30.42,West,263,2.0,2.0,78,0.00,,,0.00,Wunderground v.1.15,2013-01-08 14:15:00,
2013-01-08 09:25:00,39.9,32.9,30.41,WNW,290,1.0,2.0,76,0.00,,,0.00,Wunderground v.1.15,2013-01-08 14:25:00,
2013-01-08 09:30:00,40.1,32.8,30.41,South,183,1.0,3.0,75,0.00,,,0.00,Wunderground v.1.15,2013-01-08 14:30:00,
2013-01-08 09:35:00,40.4,33.1,30.41,SSE,148,2.0,3.0,75,0.00,,,0.00,Wunderground v.1.15,2013-01-08 14:35:00,
2013-01-08 09:40:00,40.7,33.1,30.41,West,264,2.0,2.0,74,0.00,,,0.00,Wunderground v.1.15,2013-01-08 14:40:00,
2013-01-08 09:45:00,41.0,33.3,30.41,South,187,2.0,3.0,74,0.00,,,0.00,Wunderground v.1.15,2013-01-08 14:45:00,
2013-01-08 09:50:00,41.2,33.5,30.42,NNW,335,2.0,2.0,74,0.00,,,0.00,Wunderground v.1.15,2013-01-08 14:50:00,
2013-01-08 09:55:00,41.4,33.7,30.42,NW,315,2.0,3.0,74,0.00,,,0.00,Wunderground v.1.15,2013-01-08 14:55:00,
2013-01-08 10:00:00,41.7,33.7,30.42,WNW,288,2.0,2.0,73,0.00,,,0.00,Wunderground v.1.15,2013-01-08 15:00:00,
2013-01-08 10:10:00,42.3,33.9,30.42,SSW,205,2.0,2.0,72,0.00,,,0.00,Wunderground v.1.15,2013-01-08 15:10:00,
2013-01-08 10:15:00,42.7,33.9,30.41,NW,304,2.0,2.0,71,0.00,,,0.00,Wunderground v.1.15,2013-01-08 15:15:00,
2013-01-08 10:20:00,43.0,34.2,30.41,SW,235,2.0,3.0,71,0.00,,,0.00,Wunderground v.1.15,2013-01-08 15:20:00,
2013-01-08 10:25:00,43.3,34.2,30.40,WSW,246,2.0,3.0,70,0.00,,,0.00,Wunderground v.1.15,2013-01-08 15:25:00,
2013-01-08 10:30:00,43.7,34.2,30.41,WSW,248,2.0,4.0,69,0.00,,,0.00,Wunderground v.1.15,2013-01-08 15:30:00,
2013-01-08 10:35:00,43.9,34.4,30.40,WSW,255,3.0,4.0,69,0.00,,,0.00,Wunderground v.1.15,2013-01-08 15:35:00,
2013-01-08 10:40:00,44.1,33.8,30.40,SSE,148,3.0,3.0,67,0.00,,,0.00,Wunderground v.1.15,2013-01-08 15:40:00,
2013-01-08 10:45:00,44.5,34.2,30.39,WSW,249,2.0,3.0,67,0.00,,,0.00,Wunderground v.1.15,2013-01-08 15:45:00,
2013-01-08 10:50:00,44.9,33.8,30.39,WSW,257,2.0,2.0,65,0.00,,,0.00,Wunderground v.1.15,2013-01-08 15:50:00,
2013-01-08 10:55:00,45.1,33.2,30.39,WNW,285,3.0,3.0,63,0.00,,,0.00,Wunderground v.1.15,2013-01-08 15:55:00,
2013-01-08 11:05:00,45.8,33.5,30.38,West,264,3.0,4.0,62,0.00,,,0.00,Wunderground v.1.15,2013-01-08 16:05:00,
2013-01-08 11:10:00,46.2,33.9,30.38,SSW,212,3.0,3.0,62,0.00,,,0.00,Wunderground v.1.15,2013-01-08 16:10:00,
2013-01-08 11:20:00,46.7,33.5,30.37,West,260,2.0,3.0,60,0.00,,,0.00,Wunderground v.1.15,2013-01-08 16:20:00,
2013-01-08 11:25:00,47.1,33.9,30.36,WSW,246,2.0,3.0,60,0.00,,,0.00,Wunderground v.1.15,2013-01-08 16:25:00,
2013-01-08 11:30:00,47.4,34.2,30.36,SW,235,2.0,5.0,60,0.00,,,0.00,Wunderground v.1.15,2013-01-08 16:30:00,
2013-01-08 11:35:00,47.5,34.7,30.36,WNW,290,2.0,5.0,61,0.00,,,0.00,Wunderground v.1.15,2013-01-08 16:35:00,
2013-01-08 11:45:00,47.6,34.4,30.35,South,177,3.0,4.0,60,0.00,,,0.00,Wunderground v.1.15,2013-01-08 16:45:00,
2013-01-08 11:50:00,47.6,34.0,30.34,WNW,290,3.0,4.0,59,0.00,,,0.00,Wunderground v.1.15,2013-01-08 16:50:00,
2013-01-08 11:55:00,47.6,34.4,30.34,SSW,195,2.0,4.0,60,0.00,,,0.00,Wunderground v.1.15,2013-01-08 16:55:00,
2013-01-08 12:00:00,47.8,34.2,30.34,West,262,2.0,5.0,59,0.00,,,0.00,Wunderground v.1.15,2013-01-08 17:00:00,
2013-01-08 12:05:00,47.8,34.6,30.34,WSW,255,2.0,5.0,60,0.00,,,0.00,Wunderground v.1.15,2013-01-08 17:05:00,
2013-01-08 12:10:00,47.9,34.7,30.34,WNW,283,3.0,4.0,60,0.00,,,0.00,Wunderground v.1.15,2013-01-08 17:10:00,
2013-01-08 12:15:00,47.9,33.8,30.34,WNW,294,3.0,5.0,58,0.00,,,0.00,Wunderground v.1.15,2013-01-08 17:15:00,
2013-01-08 12:20:00,48.0,34.3,30.34,WNW,288,4.0,4.0,59,0.00,,,0.00,Wunderground v.1.15,2013-01-08 17:20:00,
2013-01-08 12:25:00,48.2,34.1,30.34,WSW,238,3.0,6.0,58,0.00,,,0.00,Wunderground v.1.15,2013-01-08 17:25:00,
2013-01-08 12:35:00,48.4,34.3,30.34,West,280,4.0,10.0,58,0.00,,,0.00,Wunderground v.1.15,2013-01-08 17:35:00,
2013-01-08 12:40:00,48.6,34.5,30.34,SW,221,3.0,4.0,58,0.00,,,0.00,Wunderground v.1.15,2013-01-08 17:40:00,
2013-01-08 12:45:00,48.7,34.1,30.34,West,270,3.0,4.0,57,0.00,,,0.00,Wunderground v.1.15,2013-01-08 17:45:00,
2013-01-08 12:50:00,48.7,34.6,30.33,SSE,148,4.0,4.0,58,0.00,,,0.00,Wunderground v.1.15,2013-01-08 17:50:00,
2013-01-08 13:00:00,48.7,34.1,30.33,West,277,3.0,3.0,57,0.00,,,0.00,Wunderground v.1.15,2013-01-08 18:00:00,
2013-01-08 13:05:00,48.9,34.8,30.33,West,279,2.0,3.0,58,0.00,,,0.00,Wunderground v.1.15,2013-01-08 18:05:00,
2013-01-08 13:10:00,48.7,34.6,30.33,NW,311,2.0,4.0,58,0.00,,,0.00,Wunderground v.1.15,2013-01-08 18:10:00,
2013-01-08 13:15:00,48.7,34.6,30.33,NW,311,3.0,4.0,58,0.00,,,0.00,Wunderground v.1.15,2013-01-08 18:15:00,
2013-01-08 13:25:00,48.9,34.8,30.33,SSW,211,2.0,3.0,58,0.00,,,0.00,Wunderground v.1.15,2013-01-08 18:25:00,
2013-01-08 13:30:00,48.9,34.8,30.33,West,265,2.0,2.0,58,0.00,,,0.00,Wunderground v.1.15,2013-01-08 18:30:00,
2013-01-08 13:35:00,48.9,34.8,30.33,WSW,246,2.0,3.0,58,0.00,,,0.00,Wunderground v.1.15,2013-01-08 18:35:00,
2013-01-08 13:40:00,49.1,34.9,30.33,South,172,2.0,2.0,58,0.00,,,0.00,Wunderground v.1.15,2013-01-08 18:40:00,
2013-01-08 13:45:00,49.5,35.3,30.33,NW,315,1.0,2.0,58,0.00,,,0.00,Wunderground v.1.15,2013-01-08 18:45:00,
2013-01-08 13:50:00,49.7,35.1,30.33,WSW,243,1.0,2.0,57,0.00,,,0.00,Wunderground v.1.15,2013-01-08 18:50:00,
2013-01-08 13:55:00,49.5,34.9,30.33,WSW,250,2.0,2.0,57,0.00,,,0.00,Wunderground v.1.15,2013-01-08 18:55:00,
2013-01-08 14:00:00,49.5,34.9,30.33,West,266,2.0,5.0,57,0.00,,,0.00,Wunderground v.1.15,2013-01-08 19:00:00,
2013-01-08 14:05:00,49.7,34.6,30.33,SW,236,1.0,5.0,56,0.00,,,0.00,Wunderground v.1.15,2013-01-08 19:05:00,
2013-01-08 14:15:00,49.7,34.6,30.33,West,271,2.0,5.0,56,0.00,,,0.00,Wunderground v.1.15,2013-01-08 19:15:00,
2013-01-08 14:20:00,49.6,34.5,30.33,WNW,285,2.0,2.0,56,0.00,,,0.00,Wunderground v.1.15,2013-01-08 19:20:00,
2013-01-08 14:25:00,49.9,35.3,30.33,NW,316,2.0,2.0,57,0.00,,,0.00,Wunderground v.1.15,2013-01-08 19:25:00,
2013-01-08 14:30:00,50.1,35.0,30.33,SW,222,1.0,4.0,56,0.00,,,0.00,Wunderground v.1.15,2013-01-08 19:30:00,
2013-01-08 14:35:00,50.2,34.6,30.33,NW,312,2.0,4.0,55,0.00,,,0.00,Wunderground v.1.15,2013-01-08 19:35:00,
2013-01-08 14:45:00,50.2,34.6,30.34,West,260,3.0,3.0,55,0.00,,,0.00,Wunderground v.1.15,2013-01-08 19:45:00,
2013-01-08 14:50:00,49.9,34.4,30.34,NW,304,3.0,3.0,55,0.00,,,0.00,Wunderground v.1.15,2013-01-08 19:50:00,
2013-01-08 15:00:00,49.7,34.6,30.34,NW,325,1.0,4.0,56,0.00,,,0.00,Wunderground v.1.15,2013-01-08 20:00:00,
2013-01-08 15:05:00,49.5,34.4,30.34,NW,319,2.0,4.0,56,0.00,,,0.00,Wunderground v.1.15,2013-01-08 20:05:00,
2013-01-08 15:10:00,49.4,34.8,30.34,West,262,2.0,2.0,57,0.00,,,0.00,Wunderground v.1.15,2013-01-08 20:10:00,
2013-01-08 15:20:00,49.3,34.7,30.34,WNW,302,2.0,2.0,57,0.00,,,0.00,Wunderground v.1.15,2013-01-08 20:20:00,
2013-01-08 15:25:00,49.2,34.6,30.34,WNW,297,2.0,4.0,57,0.00,,,0.00,Wunderground v.1.15,2013-01-08 20:25:00,
2013-01-08 15:30:00,48.9,34.8,30.34,West,269,2.0,3.0,58,0.00,,,0.00,Wunderground v.1.15,2013-01-08 20:30:00,
2013-01-08 15:35:00,48.9,34.8,30.34,West,263,2.0,3.0,58,0.00,,,0.00,Wunderground v.1.15,2013-01-08 20:35:00,
2013-01-08 15:45:00,48.6,34.5,30.34,West,277,2.0,2.0,58,0.00,,,0.00,Wunderground v.1.15,2013-01-08 20:45:00,
2013-01-08 15:50:00,48.4,34.3,30.34,SW,215,2.0,2.0,58,0.00,,,0.00,Wunderground v.1.15,2013-01-08 20:50:00,
2013-01-08 15:55:00,48.4,34.7,30.34,West,281,2.0,2.0,59,0.00,,,0.00,Wunderground v.1.15,2013-01-08 20:55:00,
2013-01-08 16:00:00,48.3,34.6,30.34,WNW,282,3.0,3.0,59,0.00,,,0.00,Wunderground v.1.15,2013-01-08 21:00:00,
2013-01-08 16:05:00,48.0,34.8,30.34,WNW,285,2.0,4.0,60,0.00,,,0.00,Wunderground v.1.15,2013-01-08 21:05:00,
2013-01-08 16:10:00,47.9,34.7,30.35,WNW,285,2.0,3.0,60,0.00,,,0.00,Wunderground v.1.15,2013-01-08 21:10:00,
2013-01-08 16:15:00,47.7,34.5,30.35,WNW,297,3.0,4.0,60,0.00,,,0.00,Wunderground v.1.15,2013-01-08 21:15:00,
2013-01-08 16:20:00,47.4,34.6,30.35,WNW,296,2.0,2.0,61,0.00,,,0.00,Wunderground v.1.15,2013-01-08 21:20:00,
2013-01-08 16:25:00,47.2,34.4,30.35,WNW,294,2.0,2.0,61,0.00,,,0.00,Wunderground v.1.15,2013-01-08 21:25:00,
2013-01-08 16:30:00,46.9,34.6,30.35,WNW,285,1.0,1.0,62,0.00,,,0.00,Wunderground v.1.15,2013-01-08 21:30:00,
2013-01-08 16:35:00,46.5,34.6,30.35,WSW,246,1.0,2.0,63,0.00,,,0.00,Wunderground v.1.15,2013-01-08 21:35:00,
2013-01-08 16:45:00,46.0,34.5,30.35,WNW,294,1.0,2.0,64,0.00,,,0.00,Wunderground v.1.15,2013-01-08 21:45:00,
2013-01-08 16:50:00,45.8,34.3,30.35,NNW,336,1.0,1.0,64,0.00,,,0.00,Wunderground v.1.15,2013-01-08 21:50:00,
2013-01-08 17:00:00,45.2,34.5,30.35,WNW,282,1.0,1.0,66,0.00,,,0.00,Wunderground v.1.15,2013-01-08 22:00:00,
2013-01-08 17:05:00,44.8,34.1,30.35,WNW,300,0.0,1.0,66,0.00,,,0.00,Wunderground v.1.15,2013-01-08 22:05:00,
2013-01-08 17:10:00,44.5,34.2,30.35,West,278,0.0,0.0,67,0.00,,,0.00,Wunderground v.1.15,2013-01-08 22:10:00,
2013-01-08 17:15:00,44.0,34.1,30.35,West,278,0.0,0.0,68,0.00,,,0.00,Wunderground v.1.15,2013-01-08 22:15:00,
2013-01-08 17:25:00,43.3,33.8,30.35,West,278,0.0,0.0,69,0.00,,,0.00,Wunderground v.1.15,2013-01-08 22:25:00,
2013-01-08 17:30:00,42.8,33.7,30.35,West,278,0.0,0.0,70,0.00,,,0.00,Wunderground v.1.15,2013-01-08 22:30:00,
2013-01-08 17:35:00,42.5,33.8,30.35,West,278,0.0,0.0,71,0.00,,,0.00,Wunderground v.1.15,2013-01-08 22:35:00,
2013-01-08 17:40:00,42.2,33.5,30.36,SSW,200,0.0,0.0,71,0.00,,,0.00,Wunderground v.1.15,2013-01-08 22:40:00,
2013-01-08 17:45:00,41.9,33.5,30.36,SSW,200,0.0,0.0,72,0.00,,,0.00,Wunderground v.1.15,2013-01-08 22:45:00,
2013-01-08 17:50:00,41.7,33.7,30.36,SSW,200,0.0,0.0,73,0.00,,,0.00,Wunderground v.1.15,2013-01-08 22:50:00,
2013-01-08 17:55:00,41.6,33.6,30.36,SSW,203,0.0,0.0,73,0.00,,,0.00,Wunderground v.1.15,2013-01-08 22:55:00,
2013-01-08 18:05:00,41.2,33.5,30.36,SSW,204,0.0,0.0,74,0.00,,,0.00,Wunderground v.1.15,2013-01-08 23:05:00,
2013-01-08 18:15:00,40.9,33.6,30.36,SSW,204,0.0,0.0,75,0.00,,,0.00,Wunderground v.1.15,2013-01-08 23:15:00,
2013-01-08 18:20:00,40.7,33.7,30.35,SSW,205,0.0,0.0,76,0.00,,,0.00,Wunderground v.1.15,2013-01-08 23:20:00,
2013-01-08 18:25:00,40.6,34.3,30.35,SSW,204,0.0,0.0,78,0.00,,,0.00,Wunderground v.1.15,2013-01-08 23:25:00,
2013-01-08 18:30:00,40.5,34.2,30.35,SSW,204,0.0,0.0,78,0.00,,,0.00,Wunderground v.1.15,2013-01-08 23:30:00,
2013-01-08 18:35:00,40.4,34.4,30.35,SW,222,0.0,0.0,79,0.00,,,0.00,Wunderground v.1.15,2013-01-08 23:35:00,
2013-01-08 18:45:00,40.2,33.9,30.35,WSW,238,0.0,0.0,78,0.00,,,0.00,Wunderground v.1.15,2013-01-08 23:45:00,
2013-01-08 18:50:00,39.9,33.6,30.36,WSW,238,0.0,0.0,78,0.00,,,0.00,Wunderground v.1.15,2013-01-08 23:50:00,
2013-01-08 18:55:00,39.6,33.3,30.36,WSW,238,0.0,0.0,78,0.00,,,0.00,Wunderground v.1.15,2013-01-08 23:55:00,
2013-01-08 19:05:00,39.3,33.3,30.36,WSW,238,0.0,0.0,79,0.00,,,0.00,Wunderground v.1.15,2013-01-09 00:05:00,
2013-01-08 19:10:00,39.3,33.3,30.36,WSW,238,0.0,0.0,79,0.00,,,0.00,Wunderground v.1.15,2013-01-09 00:10:00,
2013-01-08 19:20:00,39.6,33.6,30.36,South,190,0.0,0.0,79,0.00,,,0.00,Wunderground v.1.15,2013-01-09 00:20:00,
2013-01-08 19:25:00,39.3,33.3,30.36,South,190,0.0,0.0,79,0.00,,,0.00,Wunderground v.1.15,2013-01-09 00:25:00,
2013-01-08 19:30:00,39.1,33.1,30.36,South,190,0.0,0.0,79,0.00,,,0.00,Wunderground v.1.15,2013-01-09 00:30:00,
2013-01-08 19:35:00,38.9,32.9,30.37,South,190,0.0,0.0,79,0.00,,,0.00,Wunderground v.1.15,2013-01-09 00:35:00,
2013-01-08 19:40:00,38.5,32.9,30.37,South,190,0.0,0.0,80,0.00,,,0.00,Wunderground v.1.15,2013-01-09 00:40:00,
2013-01-08 19:50:00,38.1,33.7,30.37,South,190,0.0,0.0,84,0.00,,,0.00,Wunderground v.1.15,2013-01-09 00:50:00,
2013-01-08 20:00:00,37.6,33.2,30.37,South,190,0.0,0.0,84,0.00,,,0.00,Wunderground v.1.15,2013-01-09 01:00:00,
2013-01-08 20:05:00,37.5,33.4,30.37,South,190,0.0,0.0,85,0.00,,,0.00,Wunderground v.1.15,2013-01-09 01:05:00,
2013-01-08 20:10:00,37.2,32.8,30.37,South,190,0.0,0.0,84,0.00,,,0.00,Wunderground v.1.15,2013-01-09 01:10:00,
2013-01-08 20:15:00,37.2,32.8,30.37,South,190,0.0,0.0,84,0.00,,,0.00,Wunderground v.1.15,2013-01-09 01:15:00,
2013-01-08 20:20:00,37.3,33.2,30.37,South,190,0.0,0.0,85,0.00,,,0.00,Wunderground v.1.15,2013-01-09 01:20:00,
2013-01-08 20:25:00,37.2,32.8,30.36,South,190,0.0,0.0,84,0.00,,,0.00,Wunderground v.1.15,2013-01-09 01:25:00,
2013-01-08 20:30:00,37.1,33.0,30.36,South,190,0.0,0.0,85,0.00,,,0.00,Wunderground v.1.15,2013-01-09 01:30:00,
2013-01-08 20:35:00,36.9,32.8,30.36,South,190,0.0,0.0,85,0.00,,,0.00,Wunderground v.1.15,2013-01-09 01:35:00,
2013-01-08 20:45:00,36.3,32.8,30.36,South,190,0.0,0.0,87,0.00,,,0.00,Wunderground v.1.15,2013-01-09 01:45:00,
2013-01-08 20:50:00,36.1,32.6,30.36,South,190,0.0,0.0,87,0.00,,,0.00,Wunderground v.1.15,2013-01-09 01:50:00,
2013-01-08 21:00:00,35.9,33.0,30.36,South,191,0.0,0.0,89,0.00,,,0.00,Wunderground v.1.15,2013-01-09 02:00:00,
2013-01-08 21:05:00,35.8,32.9,30.36,South,191,0.0,0.0,89,0.00,,,0.00,Wunderground v.1.15,2013-01-09 02:05:00,
2013-01-08 21:10:00,35.6,32.7,30.36,South,191,0.0,0.0,89,0.00,,,0.00,Wunderground v.1.15,2013-01-09 02:10:00,
2013-01-08 21:15:00,35.5,32.6,30.36,South,191,0.0,0.0,89,0.00,,,0.00,Wunderground v.1.15,2013-01-09 02:15:00,
2013-01-08 21:20:00,35.5,32.9,30.36,SSW,192,0.0,0.0,90,0.00,,,0.00,Wunderground v.1.15,2013-01-09 02:20:00,
2013-01-08 21:25:00,35.5,32.9,30.35,South,191,0.0,0.0,90,0.00,,,0.00,Wunderground v.1.15,2013-01-09 02:25:00,
2013-01-08 21:30:00,35.4,32.8,30.35,South,191,0.0,0.0,90,0.00,,,0.00,Wunderground v.1.15,2013-01-09 02:30:00,
2013-01-08 21:35:00,35.3,32.7,30.35,South,191,0.0,0.0,90,0.00,,,0.00,Wunderground v.1.15,2013-01-09 02:35:00,
2013-01-08 21:45:00,35.0,32.4,30.36,West,273,0.0,1.0,90,0.00,,,0.00,Wunderground v.1.15,2013-01-09 02:45:00,
2013-01-08 21:50:00,34.8,32.2,30.36,West,274,1.0,1.0,90,0.00,,,0.00,Wunderground v.1.15,2013-01-09 02:50:00,
2013-01-08 21:55:00,34.8,32.2,30.35,NNW,343,0.0,1.0,90,0.00,,,0.00,Wunderground v.1.15,2013-01-09 02:55:00,
2013-01-08 22:00:00,34.8,32.2,30.36,NNW,342,0.0,0.0,90,0.00,,,0.00,Wunderground v.1.15,2013-01-09 03:00:00,
2013-01-08 22:10:00,34.9,32.3,30.37,NNW,342,0.0,1.0,90,0.00,,,0.00,Wunderground v.1.15,2013-01-09 03:10:00,
2013-01-08 22:15:00,35.1,32.5,30.37,NNW,340,0.0,1.0,90,0.00,,,0.00,Wunderground v.1.15,2013-01-09 03:15:00,
2013-01-08 22:25:00,35.2,32.6,30.37,NNW,340,0.0,0.0,90,0.00,,,0.00,Wunderground v.1.15,2013-01-09 03:25:00,
2013-01-08 22:30:00,35.0,32.1,30.37,NNW,340,0.0,0.0,89,0.00,,,0.00,Wunderground v.1.15,2013-01-09 03:30:00,
2013-01-08 22:35:00,34.7,32.1,30.37,NNW,340,0.0,0.0,90,0.00,,,0.00,Wunderground v.1.15,2013-01-09 03:35:00,
2013-01-08 22:40:00,34.5,31.9,30.37,NNW,340,0.0,0.0,90,0.00,,,0.00,Wunderground v.1.15,2013-01-09 03:40:00,
2013-01-08 22:45:00,34.3,31.9,30.37,NNW,340,0.0,0.0,91,0.00,,,0.00,Wunderground v.1.15,2013-01-09 03:45:00,
2013-01-08 22:50:00,34.3,31.9,30.38,NNW,340,0.0,0.0,91,0.00,,,0.00,Wunderground v.1.15,2013-01-09 03:50:00,
2013-01-08 22:55:00,34.1,32.0,30.38,NNW,340,0.0,0.0,92,0.00,,,0.00,Wunderground v.1.15,2013-01-09 03:55:00,
2013-01-08 23:00:00,34.1,32.0,30.38,NNW,340,0.0,0.0,92,0.00,,,0.00,Wunderground v.1.15,2013-01-09 04:00:00,
2013-01-08 23:05:00,34.1,32.0,30.38,NNW,340,0.0,0.0,92,0.00,,,0.00,Wunderground v.1.15,2013-01-09 04:05:00,
2013-01-08 23:15:00,34.1,32.0,30.38,NNW,340,0.0,0.0,92,0.00,,,0.00,Wunderground v.1.15,2013-01-09 04:15:00,
2013-01-08 23:20:00,34.2,32.1,30.38,NNW,340,0.0,0.0,92,0.00,,,0.00,Wunderground v.1.15,2013-01-09 04:20:00,
2013-01-08 23:25:00,34.4,32.3,30.38,NNW,340,0.0,0.0,92,0.00,,,0.00,Wunderground v.1.15,2013-01-09 04:25:00,
2013-01-08 23:30:00,34.7,32.6,30.38,NNW,340,0.0,0.0,92,0.00,,,0.00,Wunderground v.1.15,2013-01-09 04:30:00,
2013-01-08 23:35:00,35.0,32.9,30.38,NNW,340,0.0,0.0,92,0.00,,,0.00,Wunderground v.1.15,2013-01-09 04:35:00,
2013-01-08 23:40:00,35.1,33.0,30.38,NNW,340,0.0,0.0,92,0.00,,,0.00,Wunderground v.1.15,2013-01-09 04:40:00,
2013-01-08 23:50:00,35.5,33.4,30.37,NNW,340,0.0,0.0,92,0.00,,,0.00,Wunderground v.1.15,2013-01-09 04:50:00,
2013-01-08 23:55:00,35.6,33.5,30.37,NNW,340,0.0,0.0,92,0.00,,,0.00,Wunderground v.1.15,2013-01-09 04:55:00,